Time;durP1;ratioP1;P1;durP2;ratioP2;P2;SDS_P1;SDS_P2;PMS_P1;PMS_P2;Temp;Humidity;BMP_temperature;BMP_pressure;BME280_temperature;BME280_humidity;BME280_pressure;Samples;Min_cycle;Max_cycle;Signal;HPM_P1;HPM_P2
2021/10/03 00:00:24;;;;;;;4.40;4.00;;;;;;;19.32;67.70;97782.19;5041066;27;103426;-71
2021/10/03 00:02:53;;;;;;;4.75;4.35;;;;;;;19.28;68.34;97777.41;5034039;27;102679;-71
2021/10/03 00:05:23;;;;;;;4.35;4.03;;;;;;;19.33;68.03;97772.31;5040957;27;102919;-71
2021/10/03 00:07:55;;;;;;;5.30;4.90;;;;;;;19.21;68.52;97765.78;5040773;27;103112;-71
2021/10/03 00:10:25;;;;;;;5.43;4.93;;;;;;;19.18;68.67;97767.00;5038776;27;103192;-71
2021/10/03 00:12:54;;;;;;;5.30;4.90;;;;;;;19.16;68.72;97766.34;5036565;27;103053;-70
2021/10/03 00:15:24;;;;;;;5.60;5.20;;;;;;;18.81;69.91;97769.78;5039792;27;102830;-71
2021/10/03 00:17:52;;;;;;;6.00;5.40;;;;;;;18.88;69.88;97760.84;5038799;27;103138;-66
2021/10/03 00:20:20;;;;;;;6.68;5.25;;;;;;;18.24;72.22;97772.19;5042099;27;103383;-71
2021/10/03 00:22:48;;;;;;;4.65;4.25;;;;;;;18.08;73.00;97767.81;5035019;27;103289;-66
2021/10/03 00:25:17;;;;;;;5.57;5.07;;;;;;;17.68;74.70;97774.31;5039056;27;102748;-66
2021/10/03 00:27:46;;;;;;;5.77;5.27;;;;;;;18.17;72.84;97779.25;5037774;27;103245;-66
2021/10/03 00:30:16;;;;;;;5.03;4.63;;;;;;;18.64;71.13;97779.03;5036183;27;102990;-66
2021/10/03 00:32:45;;;;;;;4.97;4.57;;;;;;;18.81;70.21;97783.16;5036816;27;102652;-71
2021/10/03 00:35:14;;;;;;;4.63;4.22;;;;;;;18.97;68.76;97785.66;5036732;27;103039;-71
2021/10/03 00:37:42;;;;;;;4.40;4.10;;;;;;;19.02;68.92;97791.28;5039370;27;103089;-71
2021/10/03 00:40:11;;;;;;;4.83;4.43;;;;;;;18.99;69.52;97788.97;5038039;27;102983;-71
2021/10/03 00:42:41;;;;;;;5.03;4.63;;;;;;;18.99;69.60;97787.13;5036027;27;102636;-71
2021/10/03 00:45:12;;;;;;;4.40;4.10;;;;;;;19.04;69.29;97770.50;5035345;27;102764;-71
2021/10/03 00:47:40;;;;;;;4.30;4.00;;;;;;;19.07;69.44;97773.66;5039330;27;103302;-70
2021/10/03 00:50:13;;;;;;;5.05;4.65;;;;;;;19.05;69.54;97775.69;5040087;27;103208;-70
2021/10/03 00:52:42;;;;;;;6.10;5.60;;;;;;;18.71;70.75;97770.06;5032399;27;102798;-66
2021/10/03 00:55:12;;;;;;;5.50;5.10;;;;;;;18.88;70.52;97768.88;5039729;27;102726;-71
2021/10/03 00:57:41;;;;;;;5.20;4.80;;;;;;;18.94;69.67;97764.63;5039785;27;104494;-71
2021/10/03 01:00:12;;;;;;;6.28;5.78;;;;;;;18.63;71.71;97762.13;5040547;27;103211;-71
2021/10/03 01:02:41;;;;;;;6.25;5.72;;;;;;;18.69;71.38;97766.75;5026923;27;102630;-71
2021/10/03 01:05:11;;;;;;;5.30;4.90;;;;;;;18.84;71.09;97764.06;5036333;27;104177;-72
2021/10/03 01:07:40;;;;;;;6.47;5.88;;;;;;;18.67;71.41;97752.72;5040073;27;103182;-67
2021/10/03 01:10:10;;;;;;;5.53;5.05;;;;;;;18.73;71.35;97754.66;5039150;27;102978;-66
2021/10/03 01:12:40;;;;;;;5.85;5.35;;;;;;;18.70;71.24;97752.34;5042187;27;102651;-67
2021/10/03 01:15:09;;;;;;;6.78;6.10;;;;;;;18.54;71.85;97749.84;5043068;27;102758;-66
2021/10/03 01:17:38;;;;;;;6.13;5.63;;;;;;;18.61;71.46;97742.75;5039734;27;103370;-66
2021/10/03 01:20:08;;;;;;;5.85;5.35;;;;;;;18.50;71.37;97732.50;5040131;27;103170;-66
2021/10/03 01:22:39;;;;;;;7.10;6.40;;;;;;;17.79;73.64;97733.81;5041281;27;102725;-65
2021/10/03 01:25:09;;;;;;;6.90;6.30;;;;;;;17.70;73.71;97736.72;5042300;27;103902;-66
2021/10/03 01:27:37;;;;;;;6.60;6.00;;;;;;;17.68;74.06;97734.25;5042508;27;104406;-66
2021/10/03 01:30:08;;;;;;;6.10;5.60;;;;;;;18.03;72.68;97731.94;5039945;27;103180;-66
2021/10/03 01:32:36;;;;;;;7.00;5.82;;;;;;;18.22;71.85;97726.06;5037271;27;102718;-66
2021/10/03 01:35:05;;;;;;;6.28;5.78;;;;;;;18.05;72.22;97720.06;5038279;27;102608;-66
2021/10/03 01:37:33;;;;;;;6.28;5.78;;;;;;;18.29;71.41;97721.69;5037990;27;103950;-66
2021/10/03 01:40:06;;;;;;;6.55;5.95;;;;;;;18.30;71.75;97718.81;5039136;27;103253;-66
2021/10/03 01:42:35;;;;;;;5.60;5.15;;;;;;;18.58;70.79;97716.41;5041699;27;102687;-66
2021/10/03 01:45:06;;;;;;;6.20;5.70;;;;;;;18.63;70.52;97716.66;5037007;27;102685;-66
2021/10/03 01:47:34;;;;;;;6.37;5.87;;;;;;;18.66;70.90;97713.63;5040399;27;104070;-66
2021/10/03 01:50:03;;;;;;;5.70;5.30;;;;;;;18.65;70.64;97706.59;5042638;27;103456;-71
2021/10/03 01:52:31;;;;;;;7.15;6.50;;;;;;;17.82;73.47;97706.72;5041668;27;102793;-66
2021/10/03 01:55:01;;;;;;;9.00;6.72;;;;;;;17.85;73.44;97700.22;5041519;27;102987;-71
2021/10/03 01:57:31;;;;;;;5.80;5.30;;;;;;;18.01;72.62;97699.22;5043096;27;103294;-71
2021/10/03 01:59:59;;;;;;;6.18;5.68;;;;;;;18.06;71.28;97696.84;5027695;27;104063;-71
2021/10/03 02:02:27;;;;;;;6.90;6.20;;;;;;;17.98;71.25;97696.91;5028681;27;102691;-71
2021/10/03 02:04:58;;;;;;;6.47;5.80;;;;;;;17.89;71.56;97683.63;5040023;27;104005;-70
2021/10/03 02:07:28;;;;;;;7.25;5.95;;;;;;;17.88;71.38;97683.84;5039683;27;104044;-71
2021/10/03 02:09:57;;;;;;;5.90;5.30;;;;;;;18.12;70.74;97677.41;5039097;27;103210;-71
2021/10/03 02:12:25;;;;;;;5.93;5.35;;;;;;;17.91;71.32;97676.25;5043110;27;102616;-70
2021/10/03 02:14:55;;;;;;;6.07;5.57;;;;;;;17.65;71.81;97683.84;5037155;27;102698;-67
2021/10/03 02:17:23;;;;;;;5.57;5.07;;;;;;;18.26;69.81;97673.91;5057197;27;103255;-66
2021/10/03 02:19:51;;;;;;;7.03;5.70;;;;;;;17.81;71.79;97670.34;5042743;27;102992;-66
2021/10/03 02:22:19;;;;;;;5.35;4.95;;;;;;;18.10;70.67;97674.09;5041671;27;102633;-70
2021/10/03 02:24:47;;;;;;;5.88;5.15;;;;;;;18.36;69.29;97674.47;5043003;27;103994;-70
2021/10/03 02:27:15;;;;;;;5.32;4.82;;;;;;;18.49;69.05;97680.06;5042218;27;103416;-66
2021/10/03 02:29:43;;;;;;;3.93;3.60;;;;;;;18.69;68.17;97678.47;5042222;27;103340;-66
2021/10/03 02:32:13;;;;;;;4.78;4.38;;;;;;;18.66;69.02;97670.81;5036407;27;102709;-66
2021/10/03 02:34:41;;;;;;;4.27;3.90;;;;;;;18.73;68.97;97663.69;5039408;27;102642;-70
2021/10/03 02:37:09;;;;;;;5.00;4.60;;;;;;;18.69;69.10;97665.09;5041378;27;103480;-70
2021/10/03 02:39:37;;;;;;;5.18;4.78;;;;;;;18.69;68.34;97661.59;5041368;27;103193;-66
2021/10/03 02:42:05;;;;;;;4.93;4.53;;;;;;;18.67;68.24;97651.06;5034340;27;102606;-70
2021/10/03 02:44:33;;;;;;;3.80;3.50;;;;;;;18.81;68.13;97647.53;5032464;27;103141;-71
2021/10/03 02:47:02;;;;;;;4.70;4.30;;;;;;;18.71;68.38;97641.66;5037930;27;103302;-70
2021/10/03 02:49:31;;;;;;;4.00;3.70;;;;;;;18.80;67.39;97639.72;5041370;27;102960;-70
2021/10/03 02:51:59;;;;;;;3.90;3.60;;;;;;;18.85;67.53;97632.78;5040805;27;102596;-70
2021/10/03 02:54:27;;;;;;;4.88;4.50;;;;;;;18.60;68.06;97628.78;5039753;27;102684;-66
2021/10/03 02:56:55;;;;;;;5.50;5.00;;;;;;;18.16;69.47;97630.59;5041637;27;103419;-66
2021/10/03 02:59:25;;;;;;;4.40;4.10;;;;;;;18.54;68.26;97629.50;5042231;27;103195;-66
2021/10/03 03:01:52;;;;;;;5.30;4.80;;;;;;;17.78;70.56;97627.97;5037910;27;102670;-66
2021/10/03 03:04:21;;;;;;;4.50;4.10;;;;;;;18.22;69.68;97625.34;5037732;27;104503;-66
2021/10/03 03:06:50;;;;;;;3.83;3.53;;;;;;;18.53;68.33;97627.84;5039303;27;103301;-66
2021/10/03 03:09:18;;;;;;;3.83;3.53;;;;;;;18.58;68.06;97620.13;5040156;27;103351;-70
2021/10/03 03:11:47;;;;;;;4.70;4.30;;;;;;;18.43;68.78;97613.91;5042436;27;102573;-70
2021/10/03 03:14:14;;;;;;;4.30;3.90;;;;;;;18.43;68.71;97624.59;5042651;27;104851;-70
2021/10/03 03:16:44;;;;;;;4.30;4.00;;;;;;;18.62;67.56;97621.38;5039355;27;103004;-71
2021/10/03 03:19:12;;;;;;;3.87;3.57;;;;;;;18.70;67.56;97623.94;5043036;27;102987;-70
2021/10/03 03:21:41;;;;;;;4.00;3.70;;;;;;;18.70;67.34;97618.59;5040198;27;102895;-66
2021/10/03 03:24:11;;;;;;;3.65;3.35;;;;;;;18.73;67.73;97609.34;5038907;27;103972;-66
2021/10/03 03:26:39;;;;;;;4.40;4.10;;;;;;;18.73;66.74;97612.88;5037958;27;103275;-66
2021/10/03 03:29:07;;;;;;;4.53;4.22;;;;;;;18.64;66.82;97613.97;5040133;27;103457;-66
2021/10/03 03:31:35;;;;;;;4.60;4.20;;;;;;;18.34;67.78;97604.31;5042032;27;102630;-66
2021/10/03 03:34:04;;;;;;;4.80;4.40;;;;;;;18.55;66.79;97607.09;5041123;27;103129;-66
2021/10/03 03:36:32;;;;;;;4.00;3.70;;;;;;;18.65;66.73;97596.09;5038393;27;103242;-65
2021/10/03 03:39:03;;;;;;;3.78;3.47;;;;;;;18.78;66.12;97605.09;5041425;27;103259;-66
2021/10/03 03:41:32;;;;;;;5.35;4.85;;;;;;;18.18;68.51;97596.50;5037795;27;102699;-71
2021/10/03 03:44:00;;;;;;;5.03;4.63;;;;;;;18.14;68.80;97605.88;5040994;27;103823;-71
2021/10/03 03:46:28;;;;;;;4.43;4.07;;;;;;;18.47;67.46;97596.47;5036523;27;104275;-71
2021/10/03 03:48:56;;;;;;;4.80;4.40;;;;;;;17.95;69.31;97602.75;5036446;27;103311;-71
2021/10/03 03:51:24;;;;;;;5.13;4.63;;;;;;;17.94;68.96;97598.41;5038099;27;102609;-71
2021/10/03 03:53:53;;;;;;;4.10;3.80;;;;;;;18.32;68.45;97609.03;5039153;27;103965;-66
2021/10/03 03:56:21;;;;;;;4.50;4.10;;;;;;;18.18;69.48;97602.69;5030612;27;103277;-70
2021/10/03 03:58:50;;;;;;;4.00;3.60;;;;;;;18.39;67.91;97596.56;5034360;27;103179;-70
2021/10/03 04:01:20;;;;;;;3.45;3.25;;;;;;;18.55;67.59;97595.56;5040257;27;102873;-70
2021/10/03 04:03:48;;;;;;;4.30;3.95;;;;;;;18.55;67.34;97609.78;5039128;27;102671;-65
2021/10/03 04:06:16;;;;;;;4.00;3.70;;;;;;;18.36;68.75;97607.63;4995564;27;103434;-69
2021/10/03 04:08:44;;;;;;;3.70;3.42;;;;;;;18.47;68.27;97601.81;5023572;27;103368;-70
2021/10/03 04:11:13;;;;;;;4.43;4.03;;;;;;;18.44;68.24;97591.50;5015623;27;102663;-70
2021/10/03 04:13:41;;;;;;;3.85;3.55;;;;;;;18.40;68.72;97601.75;5018912;27;103291;-65
2021/10/03 04:16:12;;;;;;;4.03;3.72;;;;;;;18.48;67.45;97603.50;5018901;27;102973;-65
2021/10/03 04:18:40;;;;;;;3.30;3.10;;;;;;;18.52;67.46;97594.09;5016847;28;103208;-65
2021/10/03 04:21:08;;;;;;;4.03;3.70;;;;;;;18.57;67.00;97591.69;5002311;27;103174;-65
2021/10/03 04:23:37;;;;;;;3.17;2.97;;;;;;;18.57;67.32;97594.38;5021544;27;104018;-65
2021/10/03 04:26:06;;;;;;;3.90;3.60;;;;;;;18.51;67.61;97595.13;5025636;27;103266;-65
2021/10/03 04:28:34;;;;;;;4.80;4.40;;;;;;;18.25;66.95;97581.38;5010966;28;103493;-66
2021/10/03 04:31:02;;;;;;;4.75;4.35;;;;;;;18.33;67.41;97586.63;5003322;28;102614;-66
2021/10/03 04:33:32;;;;;;;3.70;3.40;;;;;;;18.49;67.14;97581.09;5021051;27;104318;-67
2021/10/03 04:36:00;;;;;;;4.18;3.88;;;;;;;18.42;66.80;97572.97;5022523;27;104159;-67
2021/10/03 04:38:28;;;;;;;4.20;3.90;;;;;;;18.50;66.88;97569.38;5017955;27;102920;-64
2021/10/03 04:40:56;;;;;;;3.35;3.10;;;;;;;18.48;66.59;97566.91;5012319;27;102925;-66
2021/10/03 04:43:24;;;;;;;3.95;3.65;;;;;;;18.55;66.18;97567.00;5019221;27;104054;-66
2021/10/03 04:45:52;;;;;;;3.78;3.47;;;;;;;18.50;66.00;97558.69;5014855;28;104252;-70
2021/10/03 04:48:20;;;;;;;4.18;3.67;;;;;;;18.55;65.84;97567.00;5018009;28;103212;-66
2021/10/03 04:50:50;;;;;;;4.93;4.53;;;;;;;18.05;68.42;97561.59;5023274;27;102679;-66
2021/10/03 04:53:18;;;;;;;4.33;3.97;;;;;;;18.05;68.66;97561.59;5011787;27;103147;-69
2021/10/03 04:55:46;;;;;;;3.83;3.53;;;;;;;18.23;68.41;97559.34;5024175;27;103482;-68
2021/10/03 04:58:14;;;;;;;5.13;4.63;;;;;;;17.64;70.30;97556.66;5012453;27;102984;-70
2021/10/03 05:00:42;;;;;;;4.18;3.88;;;;;;;18.16;68.49;97561.91;5023941;27;102553;-69
2021/10/03 05:03:10;;;;;;;4.32;4.03;;;;;;;17.50;70.49;97559.28;5019521;27;104550;-70
2021/10/03 05:05:38;;;;;;;3.90;3.60;;;;;;;17.84;69.26;97549.78;5019583;28;103673;-71
2021/10/03 05:08:11;;;;;;;4.80;4.40;;;;;;;17.79;69.83;97546.00;5025041;28;103247;-66
2021/10/03 05:10:43;;;;;;;4.55;4.13;;;;;;;17.59;69.80;97548.38;5024413;27;102758;-66
2021/10/03 05:13:11;;;;;;;4.20;3.88;;;;;;;17.76;69.05;97549.88;5019346;27;102858;-66
2021/10/03 05:15:42;;;;;;;5.03;4.53;;;;;;;17.07;71.27;97548.28;5012604;27;103862;-65
2021/10/03 05:18:10;;;;;;;4.82;4.32;;;;;;;17.28;70.01;97544.97;5035433;27;103045;-64
2021/10/03 05:20:38;;;;;;;4.38;3.65;;;;;;;16.91;70.68;97558.25;5025442;27;102949;-65
2021/10/03 05:23:08;;;;;;;3.92;3.50;;;;;;;16.78;71.74;97557.03;5024031;28;103986;-65
2021/10/03 05:25:36;;;;;;;4.40;3.70;;;;;;;16.56;72.23;97560.47;5024289;27;103250;-69
2021/10/03 05:28:04;;;;;;;4.38;4.00;;;;;;;17.28;69.71;97560.97;5023436;27;103213;-70
2021/10/03 05:30:32;;;;;;;3.67;3.33;;;;;;;16.78;72.51;97570.38;5017028;27;102813;-70
2021/10/03 05:33:00;;;;;;;4.00;3.55;;;;;;;16.70;72.65;97562.41;5011567;28;102866;-70
2021/10/03 05:35:28;;;;;;;3.30;3.00;;;;;;;16.83;72.43;97566.31;5014306;27;103388;-70
2021/10/03 05:37:57;;;;;;;3.13;2.83;;;;;;;16.87;72.45;97567.66;5017473;27;103087;-70
2021/10/03 05:40:26;;;;;;;3.75;3.38;;;;;;;16.86;73.29;97565.97;5019644;27;102581;-69
2021/10/03 05:42:54;;;;;;;4.30;3.10;;;;;;;16.77;73.26;97571.38;5023483;27;103918;-69
2021/10/03 05:45:22;;;;;;;3.38;3.08;;;;;;;16.85;72.76;97569.63;5009703;27;104083;-68
2021/10/03 05:47:50;;;;;;;4.47;4.00;;;;;;;16.54;74.11;97559.84;5022011;27;102701;-66
2021/10/03 05:50:18;;;;;;;4.70;4.00;;;;;;;16.74;73.36;97563.72;5019893;27;102738;-66
2021/10/03 05:52:46;;;;;;;4.03;3.63;;;;;;;16.61;72.86;97571.47;5005097;28;102586;-66
2021/10/03 05:55:14;;;;;;;4.18;3.78;;;;;;;16.51;72.09;97562.81;5004337;28;103237;-66
2021/10/03 05:57:44;;;;;;;4.32;3.45;;;;;;;16.44;72.75;97564.53;5004702;28;103348;-71
2021/10/03 06:00:16;;;;;;;3.70;3.40;;;;;;;16.53;73.03;97560.00;5006177;28;102592;-71
2021/10/03 06:02:44;;;;;;;4.07;3.67;;;;;;;16.56;72.75;97571.16;5011991;27;102681;-71
2021/10/03 06:05:12;;;;;;;3.65;3.28;;;;;;;16.57;70.55;97571.97;5025872;28;103249;-71
2021/10/03 06:07:40;;;;;;;3.47;3.13;;;;;;;16.37;73.93;97565.38;5009921;27;103323;-71
2021/10/03 06:10:09;;;;;;;3.78;3.45;;;;;;;16.65;72.26;97569.25;5021349;27;102548;-72
2021/10/03 06:12:38;;;;;;;4.15;2.97;;;;;;;16.86;70.35;97581.97;5020901;27;102747;-71
2021/10/03 06:15:09;;;;;;;4.00;3.65;;;;;;;16.93;70.78;97561.56;5014763;28;103713;-71
2021/10/03 06:17:38;;;;;;;2.97;2.67;;;;;;;16.85;71.23;97569.63;5025615;28;103290;-71
2021/10/03 06:20:07;;;;;;;3.88;3.13;;;;;;;17.06;68.53;97567.16;5018404;28;102546;-71
2021/10/03 06:22:35;;;;;;;2.70;2.50;;;;;;;17.31;68.56;97555.28;5023789;27;103010;-71
2021/10/03 06:25:04;;;;;;;2.53;2.30;;;;;;;17.46;67.65;97561.47;5017790;27;103371;-72
2021/10/03 06:27:32;;;;;;;4.70;2.95;;;;;;;17.46;66.68;97574.81;5021041;27;103299;-71
2021/10/03 06:30:00;;;;;;;3.13;2.58;;;;;;;17.65;65.33;97582.38;5022352;27;102556;-71
2021/10/03 06:32:30;;;;;;;2.92;2.63;;;;;;;17.81;64.95;97563.50;5019472;27;103061;-71
2021/10/03 06:39:22;;;;;;;3.22;2.38;;;;;;;17.92;64.29;97555.03;4999828;27;104036;-72
2021/10/03 06:41:53;;;;;;;4.60;2.75;;;;;;;17.95;63.72;97565.34;4997699;27;103570;-71
2021/10/03 06:44:21;;;;;;;2.90;2.65;;;;;;;18.09;63.00;97560.19;5008728;22;102975;-71
2021/10/03 06:46:50;;;;;;;2.63;2.42;;;;;;;18.16;62.06;97553.91;4994964;28;103732;-71
2021/10/03 06:49:19;;;;;;;6.45;3.30;;;;;;;18.16;61.20;97550.44;4999359;28;105342;-71
2021/10/03 06:51:48;;;;;;;2.38;2.17;;;;;;;18.29;61.81;97559.44;4999889;22;107821;-72
2021/10/03 06:54:18;;;;;;;4.25;3.05;;;;;;;18.38;61.25;97570.88;4988874;28;102711;-66
2021/10/03 06:56:46;;;;;;;3.17;2.88;;;;;;;18.56;61.23;97568.63;4985078;28;104198;-66
2021/10/03 06:59:16;;;;;;;3.78;3.00;;;;;;;18.66;60.64;97563.81;4971281;28;103247;-67
2021/10/03 07:01:44;;;;;;;3.78;2.60;;;;;;;18.79;61.36;97569.31;4993959;28;102743;-72
2021/10/03 07:04:12;;;;;;;2.60;2.40;;;;;;;18.89;59.92;97580.53;4969990;28;102663;-73
2021/10/03 07:06:42;;;;;;;4.50;2.10;;;;;;;18.90;59.11;97576.84;4972926;28;104208;-68
2021/10/03 07:09:10;;;;;;;4.70;2.50;;;;;;;18.98;59.40;97570.53;4989970;28;103278;-69
2021/10/03 07:11:38;;;;;;;3.42;2.67;;;;;;;18.94;58.51;97586.16;4983195;28;103197;-70
2021/10/03 07:14:06;;;;;;;3.25;2.90;;;;;;;18.87;58.94;97603.16;4990989;28;102936;-67
2021/10/03 07:16:34;;;;;;;4.00;2.92;;;;;;;18.94;58.95;97578.13;4992381;28;103405;-70
2021/10/03 07:19:02;;;;;;;2.58;2.17;;;;;;;19.08;60.18;97584.44;4995416;28;103147;-70
2021/10/03 07:24:34;;;;;;;2.95;2.25;;;;;;;19.15;60.23;97584.50;4896473;22;104594;-75
2021/10/03 07:27:04;;;;;;;1.95;1.80;;;;;;;19.03;60.02;97576.97;4973436;28;104715;-75
2021/10/03 07:29:32;;;;;;;2.63;2.42;;;;;;;19.11;62.19;97595.56;4955366;28;105560;-76
2021/10/03 07:32:00;;;;;;;2.60;2.40;;;;;;;19.23;61.28;97597.78;4976090;28;103598;-75
2021/10/03 07:34:29;;;;;;;3.10;2.80;;;;;;;18.79;62.10;97589.88;4971285;28;105860;-76
2021/10/03 07:36:57;;;;;;;2.92;2.63;;;;;;;19.02;60.19;97591.38;4964028;28;105083;-76
2021/10/03 07:39:25;;;;;;;2.10;1.92;;;;;;;19.17;62.45;97591.34;4966002;28;103878;-76
2021/10/03 07:41:54;;;;;;;4.18;2.50;;;;;;;19.01;61.32;97595.06;4965867;28;104636;-75
2021/10/03 07:44:22;;;;;;;2.70;2.33;;;;;;;19.17;61.18;97598.53;4976652;28;104719;-74
2021/10/03 07:46:50;;;;;;;2.50;2.30;;;;;;;19.27;61.55;97593.69;4970808;28;104768;-76
2021/10/03 07:49:18;;;;;;;2.42;2.22;;;;;;;19.36;60.62;97601.41;4970201;28;103899;-76
2021/10/03 07:51:46;;;;;;;2.58;2.38;;;;;;;19.43;59.71;97604.16;4946714;28;103347;-76
2021/10/03 07:54:14;;;;;;;3.20;2.00;;;;;;;19.46;58.98;97598.41;4964326;28;104899;-76
2021/10/03 07:56:42;;;;;;;3.33;2.75;;;;;;;19.51;58.81;97585.25;4970653;28;106290;-75
2021/10/03 07:59:11;;;;;;;2.83;2.60;;;;;;;19.27;58.39;97615.94;4965239;28;104384;-75
2021/10/03 08:01:39;;;;;;;2.72;2.53;;;;;;;19.51;59.06;97601.34;4971112;28;103804;-75
2021/10/03 08:04:07;;;;;;;;;;;;;;;19.56;57.54;97612.31;4950619;28;105037;-76
2021/10/03 08:06:35;;;;;;;;;;;;;;;19.65;58.81;97603.09;4971576;28;104688;-76
2021/10/03 08:09:03;;;;;;;;;;;;;;;19.53;61.26;97585.91;4966031;28;104993;-76
2021/10/03 08:11:31;;;;;;;;;;;;;;;19.56;59.51;97582.84;4976608;28;106528;-75
2021/10/03 08:13:59;;;;;;;;;;;;;;;19.30;61.27;97582.59;4979841;28;104459;-76
2021/10/03 08:16:28;;;;;;;;;;;;;;;19.39;60.49;97581.47;4978511;28;104792;-75
2021/10/03 08:18:58;;;;;;;;;;;;;;;19.48;60.22;97581.13;4972796;28;104562;-76
2021/10/03 08:21:26;;;;;;;;;;;;;;;19.52;63.86;97576.22;4974289;28;103120;-76
2021/10/03 08:23:54;;;;;;;;;;;;;;;19.17;63.46;97572.59;4968628;28;105154;-75
2021/10/03 08:26:23;;;;;;;;;;;;;;;19.36;61.35;97571.94;4973402;28;105290;-77
2021/10/03 08:28:51;;;;;;;;;;;;;;;19.48;64.84;97580.31;4971761;28;103753;-75
2021/10/03 08:31:18;;;;;;;;;;;;;;;19.43;64.25;97577.38;4975540;28;102872;-76
2021/10/03 08:33:48;;;;;;;;;;;;;;;19.51;63.41;97587.94;4953698;28;106714;-75
2021/10/03 08:36:15;;;;;;;;;;;;;;;19.50;65.06;97567.56;4967278;28;104578;-75
2021/10/03 08:38:43;;;;;;;;;;;;;;;19.53;64.00;97578.72;4969146;28;104089;-76
2021/10/03 08:41:12;;;;;;;;;;;;;;;19.61;64.15;97578.56;4965712;28;103267;-75
2021/10/03 08:43:39;;;;;;;;;;;;;;;19.59;65.08;97577.91;4953947;28;104748;-74
2021/10/03 08:46:09;;;;;;;;;;;;;;;19.55;61.83;97584.69;4968019;28;105831;-78
2021/10/03 08:48:37;;;;;;;;;;;;;;;19.58;61.00;97602.22;4979219;28;105125;-74
2021/10/03 08:51:07;;;;;;;;;;;;;;;19.61;59.94;97596.50;4943190;28;103574;-74
2021/10/03 08:53:35;;;;;;;;;;;;;;;19.77;59.95;97601.56;4964044;28;104635;-74
2021/10/03 08:56:03;;;;;;;;;;;;;;;19.69;60.40;97604.38;4958100;28;104517;-73
2021/10/03 08:58:33;;;;;;;;;;;;;;;19.83;60.75;97595.41;4942441;28;105374;-74
2021/10/03 09:01:02;;;;;;;;;;;;;;;19.93;62.40;97590.53;4956134;28;102951;-73
2021/10/03 09:03:30;;;;;;;;;;;;;;;19.90;61.76;97606.19;4965611;28;105069;-75
2021/10/03 09:05:58;;;;;;;;;;;;;;;19.95;61.04;97599.22;4964699;28;104858;-73
2021/10/03 09:08:28;;;;;;;;;;;;;;;19.96;62.82;97590.13;4957218;28;103721;-74
2021/10/03 09:10:57;;;;;;;;;;;;;;;19.89;63.28;97597.31;4961044;28;103367;-74
2021/10/03 09:13:42;;;;;;;;;;;;;;;19.88;61.69;97608.22;4966600;28;108347;-82
2021/10/03 09:16:13;;;;;;;;;;;;;;;19.89;63.90;97600.00;4962965;28;104358;-81
2021/10/03 09:18:42;;;;;;;;;;;;;;;19.79;65.12;97604.06;4967095;28;104565;-83
2021/10/03 09:21:11;;;;;;;;;;;;;;;19.82;61.67;97601.00;4976112;28;103146;-82
2021/10/03 09:23:40;;;;;;;;;;;;;;;19.74;63.86;97593.91;4988060;28;103931;-81
2021/10/03 09:26:13;;;;;;;;;;;;;;;19.66;64.04;97588.69;4959165;28;105150;-82
2021/10/03 09:28:41;;;;;;;;;;;;;;;19.80;62.90;97585.09;4970184;28;103807;-82
2021/10/03 09:31:11;;;;;;;;;;;;;;;19.93;64.23;97590.53;4951030;28;103260;-82
2021/10/03 09:33:40;;;;;;;;;;;;;;;19.94;63.04;97581.47;4946636;28;103761;-82
2021/10/03 09:36:10;;;;;;;;;;;;;;;19.93;63.49;97595.91;4970883;28;105230;-82
2021/10/03 09:38:47;;;;;;;;;;;;;;;20.01;60.76;97598.44;4968936;28;104104;-82
2021/10/03 09:41:15;;;;;;;;;;;;;;;20.08;60.71;97599.31;4969721;28;103720;-82
2021/10/03 09:43:44;;;;;;;;;;;;;;;20.06;63.99;97587.13;4970502;28;106839;-81
2021/10/03 09:46:33;;;;;;;;;;;;;;;20.04;60.32;97584.63;4966406;28;105007;-81
2021/10/03 09:49:01;;;;;;;;;;;;;;;20.09;59.41;97592.94;4962084;28;106151;-82
2021/10/03 09:51:30;;;;;;;;;;;;;;;20.05;64.85;97588.97;4960920;28;107087;-80
2021/10/03 09:53:59;;;;;;;;;;;;;;;19.92;62.39;97588.06;4970721;28;105400;-82
2021/10/03 09:56:27;;;;;;;;;;;;;;;20.07;63.67;97594.97;4967049;28;104652;-85
2021/10/03 09:58:55;;;;;;;;;;;;;;;20.02;61.21;97599.25;4974453;28;104288;-83
2021/10/03 10:01:23;;;;;;;;;;;;;;;19.93;60.79;97603.13;4975592;28;104005;-81
2021/10/03 10:03:51;;;;;;;;;;;;;;;19.99;62.48;97605.84;4976599;28;103707;-82
2021/10/03 10:06:22;;;;;;;;;;;;;;;19.96;61.31;97608.06;4970156;28;104596;-81
2021/10/03 10:08:55;;;;;;;;;;;;;;;20.13;63.97;97606.75;4968027;28;103895;-80
2021/10/03 10:11:33;;;;;;;;;;;;;;;20.13;63.53;97612.94;4960533;28;103642;-82
2021/10/03 10:14:03;;;;;;;;;;;;;;;20.18;62.26;97607.81;4970101;28;104739;-80
2021/10/03 10:16:32;;;;;;;;;;;;;;;20.19;64.62;97600.59;4952852;28;105551;-80
2021/10/03 10:19:18;;;;;;;;;;;;;;;20.39;67.22;97600.75;4967977;28;103787;-80
2021/10/03 10:21:46;;;;;;;;;;;;;;;20.59;66.75;97596.31;4965000;28;103354;-80
2021/10/03 10:24:32;;;;;;;;;;;;;;;20.83;67.10;97588.53;4960176;28;104402;-79
2021/10/03 10:27:01;;;;;;;;;;;;;;;20.98;67.46;97591.06;4963795;28;105190;-79
2021/10/03 10:29:47;;;;;;;;;;;;;;;20.95;67.08;97586.09;4972506;28;104199;-80
2021/10/03 10:32:22;;;;;;;;;;;;;;;20.96;67.84;97585.09;4971972;28;103478;-82
2021/10/03 10:35:23;;;;;;;;;;;;;;;20.95;68.75;97588.78;4973964;28;104540;-79
2021/10/03 10:38:09;;;;;;;;;;;;;;;21.21;68.25;97598.78;4908937;28;105706;-82
2021/10/03 10:40:37;;;;;;;;;;;;;;;21.31;67.84;97593.84;4931476;28;105491;-79
2021/10/03 10:43:47;;;;;;;4.30;3.90;;;;;;;21.36;67.47;97594.88;4950269;28;103153;-80
2021/10/03 10:46:46;;;;;;;5.63;5.13;;;;;;;21.38;64.80;97592.84;4970790;28;103498;-78
2021/10/03 10:49:43;;;;;;;4.78;4.00;;;;;;;21.70;67.10;97588.47;4966283;28;106038;-78
2021/10/03 10:52:30;;;;;;;;;;;;;;;21.74;65.75;97596.97;4973818;28;103776;-85
2021/10/03 10:55:27;;;;;;;6.93;4.18;;;;;;;21.66;66.12;97597.19;4975423;28;103063;-80
2021/10/03 10:58:13;;;;;;;4.05;3.60;;;;;;;21.61;65.09;97586.22;4966032;28;104734;-76
2021/10/03 11:01:11;;;;;;;4.20;3.80;;;;;;;21.61;61.67;97586.22;4967748;28;104617;-76
2021/10/03 11:04:05;;;;;;;4.88;3.72;;;;;;;21.85;60.51;97588.28;4969291;28;104895;-78
2021/10/03 11:07:02;;;;;;;4.93;4.07;;;;;;;21.95;60.92;97583.34;4973159;28;106704;-77
2021/10/03 11:10:00;;;;;;;4.43;3.97;;;;;;;22.32;59.11;97589.88;4958808;28;104421;-79
2021/10/03 11:12:33;;;;;;;2.80;2.60;;;;;;;22.67;59.88;97582.34;4970838;28;105001;-80
2021/10/03 11:15:21;;;;;;;3.40;3.10;;;;;;;22.76;57.47;97575.66;4963143;28;103459;-77
2021/10/03 11:17:49;;;;;;;3.22;2.92;;;;;;;22.80;57.34;97582.25;4972123;28;108316;-77
2021/10/03 11:20:19;;;;;;;2.87;2.67;;;;;;;22.91;57.99;97578.88;4967663;28;104587;-79
2021/10/03 11:22:48;;;;;;;3.40;3.10;;;;;;;22.94;59.14;97562.31;4968487;28;104823;-77
2021/10/03 11:25:18;;;;;;;3.20;3.00;;;;;;;22.90;58.51;97569.19;4964792;28;108893;-77
2021/10/03 11:27:54;;;;;;;3.80;3.50;;;;;;;22.77;57.12;97590.75;4964985;28;103622;-81
2021/10/03 11:30:29;;;;;;;3.92;3.15;;;;;;;22.90;55.68;97577.25;4975124;28;104402;-79
2021/10/03 11:32:57;;;;;;;3.70;3.40;;;;;;;22.86;56.96;97582.25;4963241;28;105337;-80
2021/10/03 11:35:26;;;;;;;4.40;4.00;;;;;;;22.75;55.59;97584.78;4968072;28;103929;-79
2021/10/03 11:38:01;;;;;;;4.30;4.00;;;;;;;23.11;57.08;97560.75;4971416;28;103272;-79
2021/10/03 11:40:32;;;;;;;3.87;3.47;;;;;;;22.97;58.16;97575.34;4969374;28;104064;-79
2021/10/03 11:43:01;;;;;;;4.00;3.70;;;;;;;23.25;58.67;97570.41;4951288;28;106742;-85
2021/10/03 11:45:31;;;;;;;3.58;3.28;;;;;;;23.38;57.43;97562.25;4945907;28;105678;-78
2021/10/03 11:48:00;;;;;;;4.05;3.65;;;;;;;23.30;59.03;97559.78;4957424;28;107075;-78
2021/10/03 11:50:33;;;;;;;3.70;3.40;;;;;;;23.40;57.43;97576.34;4965923;28;104266;-80
2021/10/03 11:53:13;;;;;;;4.00;3.70;;;;;;;23.40;59.63;97562.03;4967686;28;104689;-79
2021/10/03 11:55:43;;;;;;;4.30;3.90;;;;;;;23.39;59.67;97561.22;4959671;28;106900;-78
2021/10/03 11:58:13;;;;;;;3.80;3.50;;;;;;;23.44;59.26;97550.59;4967144;28;103654;-78
2021/10/03 12:00:52;;;;;;;4.53;4.13;;;;;;;23.41;59.36;97540.25;4965783;28;105121;-78